createdAt,value
2023-05-15T00:01:30.762Z,2.98
2023-05-15T00:12:32.229Z,2.98
2023-05-15T00:23:35.281Z,2.98
2023-05-15T00:34:35.761Z,2.98
2023-05-15T00:45:38.356Z,2.98
2023-05-15T00:56:38.365Z,2.98
2023-05-15T01:07:39.264Z,2.98
2023-05-15T01:18:41.138Z,2.97
2023-05-15T01:29:33.599Z,2.96
2023-05-15T01:40:36.955Z,2.97
2023-05-15T01:51:33.694Z,2.96
2023-05-15T02:02:30.521Z,2.96
2023-05-15T02:13:30.678Z,2.96
2023-05-15T02:24:10.784Z,2.95
2023-05-15T02:35:18.345Z,2.95
2023-05-15T02:46:00.008Z,2.94
2023-05-15T02:57:01.064Z,2.94
2023-05-15T03:08:11.345Z,2.94
2023-05-15T03:18:52.656Z,2.93
2023-05-15T03:30:04.848Z,2.93
2023-05-15T03:41:01.546Z,2.92
2023-05-15T03:52:07.431Z,2.92
2023-05-15T04:03:03.935Z,2.92
2023-05-15T04:13:55.336Z,2.93
2023-05-15T04:24:58.436Z,2.94
2023-05-15T04:35:54.208Z,2.96
2023-05-15T04:46:49.763Z,2.98
2023-05-15T04:57:39.688Z,2.99
2023-05-15T05:08:43.455Z,3.00
2023-05-15T05:19:29.591Z,2.99
2023-05-15T05:30:12.924Z,3.00
2023-05-15T05:41:06.394Z,3.00
2023-05-15T05:51:45.162Z,3.01
2023-05-15T06:02:38.518Z,3.02
2023-05-15T06:13:17.233Z,3.02
2023-05-15T06:23:56.396Z,3.03
2023-05-15T06:34:48.907Z,3.05
2023-05-15T06:45:48.113Z,3.06
2023-05-15T06:56:44.266Z,3.08
2023-05-15T07:07:39.887Z,3.09
2023-05-15T07:18:39.413Z,3.11
2023-05-15T07:29:38.062Z,3.13
2023-05-15T07:40:36.833Z,3.14
2023-05-15T07:51:32.953Z,3.15
2023-05-15T08:02:29.408Z,3.18
2023-05-15T08:13:26.991Z,3.16
2023-05-15T08:24:19.279Z,3.17
2023-05-15T08:35:10.142Z,3.20
2023-05-15T08:46:05.075Z,3.25
2023-05-15T08:57:03.889Z,3.24
2023-05-15T09:07:59.920Z,3.29
2023-05-15T09:19:01.009Z,3.30
2023-05-15T09:29:51.319Z,3.33
2023-05-15T09:40:26.140Z,3.29
2023-05-15T09:51:04.333Z,3.32
2023-05-15T10:01:36.971Z,3.28
2023-05-15T10:12:37.080Z,3.30
2023-05-15T10:23:38.073Z,3.30
2023-05-15T10:34:12.033Z,3.37
2023-05-15T10:45:08.439Z,3.30
2023-05-15T10:56:06.557Z,3.31
2023-05-15T11:07:01.453Z,3.32
2023-05-15T11:18:02.122Z,3.33
2023-05-15T11:28:52.646Z,3.40
2023-05-15T11:39:55.062Z,3.40
2023-05-15T11:50:45.184Z,3.40
2023-05-15T12:01:35.084Z,3.41
2023-05-15T12:12:34.106Z,3.41
2023-05-15T12:23:29.752Z,3.42
2023-05-15T12:33:59.807Z,3.33
2023-05-15T12:44:55.812Z,3.40
2023-05-15T12:55:50.443Z,3.40
2023-05-15T13:06:47.980Z,3.36
2023-05-15T13:17:20.109Z,3.40
2023-05-15T13:27:55.279Z,3.37
2023-05-15T13:38:27.029Z,3.40
2023-05-15T13:49:18.114Z,3.41
2023-05-15T14:00:18.444Z,3.41
2023-05-15T14:11:14.783Z,3.39
2023-05-15T14:21:56.436Z,3.40
2023-05-15T14:32:33.866Z,3.36
2023-05-15T14:43:27.628Z,3.36
2023-05-15T14:54:21.438Z,3.37
2023-05-15T15:05:18.468Z,3.37
2023-05-15T15:16:14.094Z,3.37
2023-05-15T15:27:10.233Z,3.39
2023-05-15T15:37:48.765Z,3.37
2023-05-15T15:48:22.460Z,3.38
2023-05-15T15:59:20.600Z,3.36
2023-05-15T16:10:03.648Z,3.35
2023-05-15T16:20:42.618Z,3.36
2023-05-15T16:31:34.844Z,3.35
2023-05-15T16:42:25.681Z,3.34
2023-05-15T16:53:10.859Z,3.35
2023-05-15T17:03:49.544Z,3.35
2023-05-15T17:14:47.494Z,3.36
2023-05-15T17:25:20.795Z,3.38
2023-05-15T17:35:54.897Z,3.36
2023-05-15T17:46:31.639Z,3.34
2023-05-15T17:57:29.285Z,3.34
2023-05-15T18:08:23.888Z,3.32
2023-05-15T18:19:16.495Z,3.30
2023-05-15T18:29:59.967Z,3.28
2023-05-15T18:40:52.178Z,3.27
2023-05-15T18:51:41.123Z,3.26
2023-05-15T19:02:18.276Z,3.24
2023-05-15T19:13:02.943Z,3.23
2023-05-15T19:23:58.345Z,3.22
2023-05-15T19:34:32.980Z,3.21
2023-05-15T19:45:32.767Z,3.21
2023-05-15T19:56:31.587Z,3.20
2023-05-15T20:07:26.749Z,3.19
2023-05-15T20:18:23.780Z,3.19
2023-05-15T20:29:23.958Z,3.18
2023-05-15T20:40:22.589Z,3.18
2023-05-15T20:50:59.303Z,3.15
2023-05-15T21:01:57.428Z,3.15
2023-05-15T21:12:36.346Z,3.14
2023-05-15T21:23:37.421Z,3.14
2023-05-15T21:34:31.917Z,3.14
2023-05-15T21:45:21.798Z,3.13
2023-05-15T21:56:20.967Z,3.13
2023-05-15T22:07:21.244Z,3.13
2023-05-15T22:18:21.706Z,3.13
2023-05-15T22:29:21.747Z,3.13
2023-05-15T22:40:23.632Z,3.12
2023-05-15T22:51:20.224Z,3.12
2023-05-15T23:02:20.194Z,3.11
2023-05-15T23:12:56.502Z,3.10
2023-05-15T23:23:52.595Z,3.10
2023-05-15T23:34:53.129Z,3.10
2023-05-15T23:45:54.187Z,3.09
2023-05-15T23:56:54.330Z,3.09
